createdAt,value
2022-12-24T00:00:35.705Z,1.58
2022-12-24T00:01:38.310Z,1.50
2022-12-24T00:02:44.234Z,1.33
2022-12-24T00:03:46.898Z,1.48
2022-12-24T00:04:48.467Z,1.73
2022-12-24T00:05:50.999Z,2.08
2022-12-24T00:06:52.584Z,2.00
2022-12-24T00:07:55.146Z,1.60
2022-12-24T00:08:56.817Z,1.98
2022-12-24T00:09:59.387Z,1.50
2022-12-24T00:11:01.269Z,1.60
2022-12-24T00:12:03.778Z,1.60
2022-12-24T00:13:05.359Z,1.73
2022-12-24T00:14:07.818Z,1.60
2022-12-24T00:15:10.351Z,1.58
2022-12-24T00:16:12.929Z,2.00
2022-12-24T00:17:14.738Z,2.17
2022-12-24T00:18:18.664Z,1.70
2022-12-24T00:19:20.421Z,1.65
2022-12-24T00:20:24.502Z,2.00
2022-12-24T00:21:26.131Z,2.08
2022-12-24T00:22:28.845Z,1.88
2022-12-24T00:23:30.408Z,1.90
2022-12-24T00:24:33.585Z,2.03
2022-12-24T00:25:35.144Z,1.75
2022-12-24T00:26:37.710Z,2.00
2022-12-24T00:27:39.252Z,2.15
2022-12-24T00:28:41.968Z,1.60
2022-12-24T00:29:45.760Z,1.88
2022-12-24T00:30:48.523Z,1.70
2022-12-24T00:31:50.122Z,1.80
2022-12-24T00:32:52.720Z,1.73
2022-12-24T00:33:56.563Z,2.25
2022-12-24T00:34:58.210Z,2.25
2022-12-24T00:36:03.473Z,2.22
2022-12-24T00:37:05.577Z,2.08
2022-12-24T00:38:09.043Z,1.80
2022-12-24T00:39:10.555Z,2.13
2022-12-24T00:40:13.521Z,2.30
2022-12-24T00:41:25.114Z,1.80
2022-12-24T00:42:28.149Z,1.83
2022-12-24T00:43:30.446Z,1.90
2022-12-24T00:44:32.930Z,2.00
2022-12-24T00:45:34.427Z,1.83
2022-12-24T00:46:39.885Z,1.88
2022-12-24T00:47:41.877Z,2.50
2022-12-24T00:48:53.744Z,1.83
2022-12-24T00:49:56.631Z,2.10
2022-12-24T00:51:01.520Z,2.28
2022-12-24T00:52:03.387Z,1.77
2022-12-24T00:53:08.691Z,1.98
2022-12-24T00:54:10.297Z,2.15
2022-12-24T00:55:12.837Z,2.13
2022-12-24T00:56:16.967Z,1.80
2022-12-24T00:57:19.646Z,1.45
2022-12-24T00:58:21.239Z,1.42
2022-12-24T00:59:26.654Z,2.15
2022-12-24T01:00:28.227Z,1.67
2022-12-24T01:01:30.777Z,1.90
2022-12-24T01:02:32.522Z,2.00
2022-12-24T01:03:36.328Z,2.00
2022-12-24T01:04:56.513Z,1.63
2022-12-24T01:05:59.361Z,1.60
2022-12-24T01:07:00.900Z,1.90
2022-12-24T01:08:03.659Z,1.65
2022-12-24T01:09:05.233Z,2.20
2022-12-24T01:10:10.148Z,1.73
2022-12-24T01:11:15.356Z,1.77
2022-12-24T01:12:17.873Z,1.58
2022-12-24T01:13:19.373Z,1.40
2022-12-24T01:14:21.931Z,1.70
2022-12-24T01:15:23.603Z,1.55
2022-12-24T01:16:26.213Z,1.63
2022-12-24T01:17:27.866Z,1.60
2022-12-24T01:18:30.350Z,1.90
2022-12-24T01:19:31.915Z,1.83
2022-12-24T01:20:34.480Z,1.40
2022-12-24T01:21:37.350Z,1.30
2022-12-24T01:22:42.808Z,1.23
2022-12-24T01:23:44.802Z,1.65
2022-12-24T01:24:47.497Z,1.40
2022-12-24T01:25:52.385Z,1.20
2022-12-24T01:26:54.896Z,1.42
2022-12-24T01:27:56.559Z,1.50
2022-12-24T01:29:00.033Z,1.35
2022-12-24T01:30:01.665Z,1.33
2022-12-24T01:31:05.452Z,1.63
2022-12-24T01:32:06.993Z,1.25
2022-12-24T01:33:09.498Z,1.35
2022-12-24T01:34:11.067Z,1.77
2022-12-24T01:35:15.397Z,1.63
2022-12-24T01:36:17.164Z,1.15
2022-12-24T01:37:20.981Z,1.30
2022-12-24T01:38:22.781Z,1.75
2022-12-24T01:39:25.835Z,1.40
2022-12-24T01:40:46.009Z,1.40
2022-12-24T01:42:06.105Z,1.33
2022-12-24T01:43:27.972Z,1.23
2022-12-24T01:44:37.106Z,1.20
2022-12-24T01:45:45.706Z,1.33
2022-12-24T01:46:50.885Z,1.60
2022-12-24T01:47:52.637Z,1.50
2022-12-24T01:49:00.820Z,1.40
2022-12-24T01:50:15.186Z,1.40
2022-12-24T01:51:24.156Z,1.50
2022-12-24T01:52:31.139Z,1.55
2022-12-24T01:53:37.806Z,1.00
2022-12-24T01:54:43.149Z,1.60
2022-12-24T01:55:47.287Z,2.05
2022-12-24T01:56:53.308Z,1.20
2022-12-24T01:57:58.208Z,1.35
2022-12-24T01:59:04.907Z,1.50
2022-12-24T02:00:10.756Z,2.13
2022-12-24T02:01:13.557Z,1.40
2022-12-24T02:02:16.500Z,1.38
2022-12-24T02:03:20.117Z,2.20
2022-12-24T02:04:30.850Z,1.45
2022-12-24T02:05:41.783Z,0.70
2022-12-24T02:06:43.702Z,1.58
2022-12-24T02:07:48.560Z,1.33
2022-12-24T02:08:50.292Z,1.52
2022-12-24T02:09:57.026Z,1.50
2022-12-24T02:11:00.241Z,1.58
2022-12-24T02:12:03.610Z,1.45
2022-12-24T02:13:06.219Z,1.30
2022-12-24T02:14:11.037Z,1.10
2022-12-24T02:15:17.907Z,1.60
2022-12-24T02:16:32.972Z,1.67
2022-12-24T02:17:44.099Z,1.40
2022-12-24T02:18:54.789Z,1.40
2022-12-24T02:20:20.723Z,1.23
2022-12-24T02:21:49.070Z,1.00
2022-12-24T02:23:30.885Z,1.30
2022-12-24T02:24:54.426Z,1.50
2022-12-24T02:26:14.234Z,1.50
2022-12-24T02:27:29.558Z,1.50
2022-12-24T02:28:47.547Z,1.70
2022-12-24T02:30:16.713Z,1.40
2022-12-24T02:31:24.027Z,1.48
2022-12-24T02:32:33.211Z,1.10
2022-12-24T02:33:40.596Z,1.30
2022-12-24T02:34:47.802Z,1.27
2022-12-24T02:35:55.350Z,1.00
2022-12-24T02:37:10.335Z,1.30
2022-12-24T02:38:18.270Z,1.20
2022-12-24T02:39:26.493Z,1.25
2022-12-24T02:40:32.747Z,1.05
2022-12-24T02:41:51.766Z,0.98
2022-12-24T02:42:59.452Z,1.17
2022-12-24T02:44:01.092Z,1.20
2022-12-24T02:45:06.867Z,1.02
2022-12-24T02:46:14.117Z,0.90
2022-12-24T02:47:19.287Z,1.10
2022-12-24T02:48:22.605Z,1.27
2022-12-24T02:49:25.398Z,1.20
2022-12-24T02:50:27.663Z,1.38
2022-12-24T02:51:32.760Z,1.10
2022-12-24T02:52:36.758Z,1.33
2022-12-24T02:53:39.727Z,1.05
2022-12-24T02:54:41.479Z,1.10
2022-12-24T02:55:54.934Z,1.00
2022-12-24T02:57:13.840Z,1.80
2022-12-24T02:58:30.280Z,1.63
2022-12-24T02:59:59.528Z,1.40
2022-12-24T03:01:17.417Z,1.17
2022-12-24T03:02:26.789Z,1.27
2022-12-24T03:03:39.694Z,2.05
2022-12-24T03:04:47.991Z,0.98
2022-12-24T03:05:57.288Z,1.55
2022-12-24T03:07:05.998Z,1.88
2022-12-24T03:08:16.332Z,1.48
2022-12-24T03:09:25.267Z,1.10
2022-12-24T03:10:35.180Z,1.20
2022-12-24T03:11:39.034Z,1.50
2022-12-24T03:12:45.778Z,1.50
2022-12-24T03:13:48.797Z,1.70
2022-12-24T03:14:52.108Z,1.25
2022-12-24T03:15:54.274Z,1.30
2022-12-24T03:16:59.365Z,1.42
2022-12-24T03:18:03.799Z,1.52
2022-12-24T03:19:09.430Z,1.50
2022-12-24T03:20:19.321Z,1.33
2022-12-24T03:21:26.911Z,1.45
2022-12-24T03:22:31.347Z,1.58
2022-12-24T03:23:35.683Z,1.50
2022-12-24T03:24:37.994Z,1.20
2022-12-24T03:25:43.331Z,1.67
2022-12-24T03:26:46.896Z,1.55
2022-12-24T03:27:53.235Z,1.13
2022-12-24T03:28:55.506Z,1.63
2022-12-24T03:30:01.014Z,1.33
2022-12-24T03:31:05.242Z,1.20
2022-12-24T03:32:08.373Z,1.40
2022-12-24T03:33:14.148Z,1.50
2022-12-24T03:34:18.048Z,1.77
2022-12-24T03:35:19.882Z,1.48
2022-12-24T03:36:25.328Z,1.40
2022-12-24T03:37:27.175Z,1.55
2022-12-24T03:38:29.707Z,1.60
2022-12-24T03:39:31.273Z,1.98
2022-12-24T03:40:34.046Z,1.90
2022-12-24T03:41:36.081Z,1.60
2022-12-24T03:42:38.956Z,1.65
2022-12-24T03:43:42.523Z,1.80
2022-12-24T03:44:45.002Z,1.88
2022-12-24T03:45:46.568Z,1.77
2022-12-24T03:46:49.300Z,1.70
2022-12-24T03:47:50.914Z,1.42
2022-12-24T03:48:56.970Z,1.70
2022-12-24T03:49:58.602Z,1.45
2022-12-24T03:51:01.073Z,1.33
2022-12-24T03:52:02.663Z,1.30
2022-12-24T03:53:05.523Z,2.00
2022-12-24T03:54:07.129Z,1.52
2022-12-24T03:55:10.190Z,1.83
2022-12-24T03:56:11.749Z,2.13
2022-12-24T03:57:14.273Z,1.33
2022-12-24T03:58:15.810Z,1.52
2022-12-24T03:59:18.347Z,2.13
2022-12-24T04:00:20.979Z,1.77
2022-12-24T04:01:23.723Z,1.65
2022-12-24T04:02:25.607Z,1.48
2022-12-24T04:03:28.220Z,1.73
2022-12-24T04:04:33.502Z,1.70
2022-12-24T04:05:37.734Z,1.20
2022-12-24T04:06:39.360Z,1.60
2022-12-24T04:07:41.882Z,1.08
2022-12-24T04:08:44.121Z,1.52
2022-12-24T04:09:46.895Z,1.88
2022-12-24T04:10:48.578Z,1.40
2022-12-24T04:11:51.057Z,1.40
2022-12-24T04:12:52.609Z,1.80
2022-12-24T04:13:55.056Z,1.50
2022-12-24T04:14:56.532Z,1.33
2022-12-24T04:16:00.024Z,1.52
2022-12-24T04:17:01.725Z,1.85
2022-12-24T04:18:07.163Z,1.70
2022-12-24T04:19:08.680Z,1.15
2022-12-24T04:20:13.575Z,1.50
2022-12-24T04:21:15.353Z,1.60
2022-12-24T04:22:17.947Z,1.52
2022-12-24T04:23:19.466Z,1.52
2022-12-24T04:24:21.936Z,1.80
2022-12-24T04:25:23.483Z,1.73
2022-12-24T04:26:29.101Z,1.58
2022-12-24T04:27:31.238Z,1.60
2022-12-24T04:28:36.434Z,1.58
2022-12-24T04:29:37.962Z,1.50
2022-12-24T04:30:40.896Z,1.90
2022-12-24T04:31:42.520Z,1.73
2022-12-24T04:32:45.088Z,1.30
2022-12-24T04:33:46.903Z,1.48
2022-12-24T04:34:49.357Z,1.50
2022-12-24T04:35:52.452Z,1.83
2022-12-24T04:36:54.871Z,1.45
2022-12-24T04:37:57.335Z,1.95
2022-12-24T04:38:58.874Z,1.40
2022-12-24T04:40:01.305Z,1.70
2022-12-24T04:41:06.829Z,1.48
2022-12-24T04:42:09.279Z,1.60
2022-12-24T04:43:10.821Z,1.70
2022-12-24T04:44:13.324Z,1.88
2022-12-24T04:45:14.824Z,1.85
2022-12-24T04:46:19.065Z,1.40
2022-12-24T04:47:20.551Z,1.52
2022-12-24T04:48:23.105Z,1.17
2022-12-24T04:49:27.627Z,1.85
2022-12-24T04:50:30.311Z,1.42
2022-12-24T04:51:33.251Z,1.90
2022-12-24T04:52:35.985Z,1.50
2022-12-24T04:53:38.820Z,1.40
2022-12-24T04:54:41.251Z,1.33
2022-12-24T04:55:47.504Z,1.50
2022-12-24T04:56:49.914Z,1.60
2022-12-24T04:57:53.204Z,1.38
2022-12-24T04:58:56.392Z,1.33
2022-12-24T04:59:57.880Z,1.90
2022-12-24T05:01:05.108Z,1.88
2022-12-24T05:02:06.895Z,1.77
2022-12-24T05:03:09.930Z,1.77
2022-12-24T05:04:11.421Z,1.77
2022-12-24T05:05:13.863Z,1.67
2022-12-24T05:06:18.465Z,1.70
2022-12-24T05:07:22.657Z,1.65
2022-12-24T05:08:24.145Z,1.95
2022-12-24T05:09:26.626Z,2.30
2022-12-24T05:10:31.207Z,1.75
2022-12-24T05:11:33.660Z,1.38
2022-12-24T05:12:35.136Z,1.40
2022-12-24T05:13:44.361Z,1.20
2022-12-24T05:14:48.040Z,1.70
2022-12-24T05:15:50.573Z,1.70
2022-12-24T05:16:52.293Z,1.50
2022-12-24T05:17:56.641Z,1.52
2022-12-24T05:18:58.195Z,1.83
2022-12-24T05:20:00.738Z,1.67
2022-12-24T05:21:02.994Z,1.50
2022-12-24T05:22:37.361Z,1.40
2022-12-24T05:24:01.051Z,1.70
2022-12-24T05:25:20.840Z,1.67
2022-12-24T05:26:30.107Z,1.73
2022-12-24T05:27:33.279Z,2.00
2022-12-24T05:28:35.897Z,1.70
2022-12-24T05:29:37.401Z,2.33
2022-12-24T05:30:39.937Z,1.92
2022-12-24T05:31:42.675Z,1.55
2022-12-24T05:32:47.588Z,1.70
2022-12-24T05:33:49.284Z,1.40
2022-12-24T05:34:51.811Z,1.83
2022-12-24T05:35:53.280Z,1.48
2022-12-24T05:36:56.073Z,1.70
2022-12-24T05:37:58.121Z,1.77
2022-12-24T05:39:02.180Z,1.55
2022-12-24T05:40:04.310Z,2.17
2022-12-24T05:41:07.482Z,1.85
2022-12-24T05:42:09.063Z,1.63
2022-12-24T05:43:11.676Z,1.50
2022-12-24T05:44:13.596Z,1.75
2022-12-24T05:45:21.976Z,1.48
2022-12-24T05:46:27.822Z,1.60
2022-12-24T05:47:30.704Z,2.08
2022-12-24T05:48:33.027Z,1.73
2022-12-24T05:49:35.470Z,2.45
2022-12-24T05:50:39.157Z,2.20
2022-12-24T05:51:42.046Z,1.80
2022-12-24T05:52:44.057Z,2.30
2022-12-24T05:53:48.835Z,1.80
2022-12-24T05:54:51.635Z,1.80
2022-12-24T05:55:54.048Z,1.98
2022-12-24T05:56:55.575Z,1.92
2022-12-24T05:57:58.045Z,1.95
2022-12-24T05:58:59.660Z,1.80
2022-12-24T06:00:02.097Z,1.73
2022-12-24T06:01:05.258Z,1.60
2022-12-24T06:02:07.943Z,1.90
2022-12-24T06:03:09.533Z,1.70
2022-12-24T06:04:11.995Z,1.65
2022-12-24T06:05:13.696Z,2.70
2022-12-24T06:06:19.157Z,2.10
2022-12-24T06:07:21.554Z,2.33
2022-12-24T06:08:24.061Z,1.73
2022-12-24T06:09:26.499Z,2.05
2022-12-24T06:10:29.312Z,1.75
2022-12-24T06:11:32.005Z,2.75
2022-12-24T06:12:33.549Z,2.20
2022-12-24T06:13:36.662Z,1.60
2022-12-24T06:14:38.235Z,1.98
2022-12-24T06:15:40.716Z,1.70
2022-12-24T06:16:42.301Z,1.75
2022-12-24T06:17:44.723Z,1.50
2022-12-24T06:18:46.516Z,1.83
2022-12-24T06:19:49.488Z,2.33
2022-12-24T06:20:51.964Z,3.08
2022-12-24T06:21:54.478Z,2.05
2022-12-24T06:22:56.006Z,1.92
2022-12-24T06:23:58.474Z,1.98
2022-12-24T06:25:00.056Z,1.38
2022-12-24T06:26:05.313Z,1.50
2022-12-24T06:27:06.796Z,1.80
2022-12-24T06:28:09.264Z,2.22
2022-12-24T06:29:11.636Z,1.67
2022-12-24T06:30:15.004Z,1.63
2022-12-24T06:31:18.491Z,1.70
2022-12-24T06:32:21.330Z,1.73
2022-12-24T06:33:23.112Z,1.67
2022-12-24T06:34:27.408Z,1.75
2022-12-24T06:35:31.147Z,1.70
2022-12-24T06:36:33.727Z,1.70
2022-12-24T06:37:35.210Z,1.50
2022-12-24T06:38:41.842Z,1.30
2022-12-24T06:39:43.531Z,1.42
2022-12-24T06:40:47.521Z,1.35
2022-12-24T06:41:53.669Z,1.45
2022-12-24T06:42:56.232Z,1.90
2022-12-24T06:44:00.890Z,1.52
2022-12-24T06:45:08.194Z,1.20
2022-12-24T06:46:10.623Z,1.67
2022-12-24T06:47:13.134Z,1.20
2022-12-24T06:48:16.736Z,1.48
2022-12-24T06:49:19.556Z,1.30
2022-12-24T06:50:21.042Z,1.30
2022-12-24T06:51:23.572Z,1.50
2022-12-24T06:52:25.123Z,1.20
2022-12-24T06:53:27.553Z,1.45
2022-12-24T06:54:29.173Z,1.48
2022-12-24T06:55:31.641Z,1.40
2022-12-24T06:56:33.338Z,1.30
2022-12-24T06:57:37.244Z,1.08
2022-12-24T06:58:40.644Z,1.48
2022-12-24T06:59:43.338Z,1.30
2022-12-24T07:00:44.894Z,1.20
2022-12-24T07:01:47.375Z,1.20
2022-12-24T07:02:49.186Z,1.30
2022-12-24T07:03:51.766Z,1.45
2022-12-24T07:04:53.313Z,1.35
2022-12-24T07:05:58.800Z,1.30
2022-12-24T07:07:00.292Z,1.38
2022-12-24T07:08:02.818Z,1.67
2022-12-24T07:09:04.335Z,1.40
2022-12-24T07:10:09.385Z,1.40
2022-12-24T07:11:10.893Z,1.70
2022-12-24T07:12:13.375Z,1.20
2022-12-24T07:13:16.303Z,1.48
2022-12-24T07:14:18.727Z,1.70
2022-12-24T07:15:20.264Z,2.03
2022-12-24T07:16:22.832Z,1.63
2022-12-24T07:17:24.732Z,1.58
2022-12-24T07:18:27.338Z,1.80
2022-12-24T07:19:28.860Z,1.60
2022-12-24T07:20:31.324Z,1.42
2022-12-24T07:21:32.790Z,1.80
2022-12-24T07:22:38.382Z,1.45
2022-12-24T07:23:39.844Z,1.55
2022-12-24T07:24:45.261Z,1.67
2022-12-24T07:25:46.886Z,1.73
2022-12-24T07:26:49.323Z,2.17
2022-12-24T07:27:51.033Z,2.25
2022-12-24T07:28:54.826Z,2.10
2022-12-24T07:29:58.623Z,1.98
2022-12-24T07:31:01.536Z,1.50
2022-12-24T07:32:03.302Z,1.67
2022-12-24T07:33:05.746Z,1.95
2022-12-24T07:34:07.231Z,1.65
2022-12-24T07:35:10.057Z,1.95
2022-12-24T07:36:19.115Z,2.15
2022-12-24T07:37:21.613Z,2.38
2022-12-24T07:38:25.966Z,2.33
2022-12-24T07:39:34.282Z,1.77
2022-12-24T07:40:35.802Z,1.90
2022-12-24T07:41:41.676Z,1.75
2022-12-24T07:42:45.118Z,2.00
2022-12-24T07:43:47.810Z,2.03
2022-12-24T07:44:50.915Z,2.05
2022-12-24T07:45:56.075Z,1.90
2022-12-24T07:46:57.761Z,1.90
2022-12-24T07:48:00.299Z,1.95
2022-12-24T07:49:01.815Z,2.00
2022-12-24T07:50:04.677Z,2.10
2022-12-24T07:51:06.310Z,2.53
2022-12-24T07:52:08.781Z,1.80
2022-12-24T07:53:10.301Z,1.55
2022-12-24T07:54:12.825Z,2.83
2022-12-24T07:55:14.276Z,1.98
2022-12-24T07:56:22.340Z,2.28
2022-12-24T07:57:23.891Z,1.73
2022-12-24T07:58:26.796Z,2.00
2022-12-24T07:59:28.322Z,2.20
2022-12-24T08:00:32.212Z,1.98
2022-12-24T08:01:34.125Z,2.33
2022-12-24T08:02:37.194Z,1.80
2022-12-24T08:03:38.936Z,2.17
2022-12-24T08:04:41.644Z,1.95
2022-12-24T08:05:43.142Z,2.50
2022-12-24T08:06:45.879Z,2.35
2022-12-24T08:07:47.415Z,2.08
2022-12-24T08:08:50.093Z,2.35
2022-12-24T08:09:51.587Z,2.30
2022-12-24T08:10:54.145Z,2.15
2022-12-24T08:11:58.475Z,2.38
2022-12-24T08:13:00.942Z,2.13
2022-12-24T08:14:02.426Z,2.40
2022-12-24T08:15:05.606Z,2.22
2022-12-24T08:16:08.555Z,2.58
2022-12-24T08:17:13.925Z,2.35
2022-12-24T08:18:16.547Z,2.28
2022-12-24T08:19:18.220Z,2.40
2022-12-24T08:20:20.709Z,2.28
2022-12-24T08:21:22.307Z,2.40
2022-12-24T08:22:25.832Z,2.30
2022-12-24T08:23:27.331Z,2.20
2022-12-24T08:24:29.769Z,1.95
2022-12-24T08:25:31.314Z,2.35
2022-12-24T08:26:33.788Z,2.20
2022-12-24T08:27:35.756Z,2.15
2022-12-24T08:28:38.464Z,2.75
2022-12-24T08:29:40.070Z,2.42
2022-12-24T08:30:43.288Z,3.05
2022-12-24T08:31:46.196Z,2.40
2022-12-24T08:32:48.733Z,2.28
2022-12-24T08:33:50.260Z,2.10
2022-12-24T08:34:52.738Z,2.15
2022-12-24T08:35:57.147Z,2.85
2022-12-24T08:37:02.695Z,2.20
2022-12-24T08:38:06.675Z,2.67
2022-12-24T08:39:09.136Z,2.33
2022-12-24T08:40:11.831Z,2.00
2022-12-24T08:41:14.286Z,2.30
2022-12-24T08:42:15.858Z,2.28
2022-12-24T08:43:19.023Z,2.30
2022-12-24T08:44:20.526Z,2.28
2022-12-24T08:45:23.262Z,2.30
2022-12-24T08:46:27.828Z,2.58
2022-12-24T08:47:31.660Z,1.75
2022-12-24T08:48:33.703Z,2.47
2022-12-24T08:49:36.380Z,2.10
2022-12-24T08:50:39.551Z,2.13
2022-12-24T08:51:41.992Z,2.78
2022-12-24T08:52:43.588Z,1.88
2022-12-24T08:53:49.551Z,1.35
2022-12-24T08:54:53.403Z,2.35
2022-12-24T08:56:02.905Z,2.15
2022-12-24T08:57:04.416Z,2.28
2022-12-24T08:58:08.717Z,2.30
2022-12-24T08:59:11.511Z,2.13
2022-12-24T09:00:15.513Z,2.13
2022-12-24T09:01:18.935Z,1.77
2022-12-24T09:02:22.108Z,2.03
2022-12-24T09:03:28.082Z,2.35
2022-12-24T09:04:30.140Z,1.88
2022-12-24T09:05:33.030Z,1.98
2022-12-24T09:06:34.529Z,2.40
2022-12-24T09:07:37.590Z,1.75
2022-12-24T09:08:39.528Z,1.90
2022-12-24T09:09:42.063Z,2.15
2022-12-24T09:10:43.520Z,2.25
2022-12-24T09:11:46.187Z,2.03
2022-12-24T09:12:47.833Z,2.60
2022-12-24T09:13:50.505Z,1.80
2022-12-24T09:14:52.089Z,2.42
2022-12-24T09:15:57.929Z,1.58
2022-12-24T09:16:59.863Z,1.80
2022-12-24T09:18:02.732Z,1.67
2022-12-24T09:19:05.560Z,1.48
2022-12-24T09:20:09.351Z,1.80
2022-12-24T09:21:14.460Z,2.13
2022-12-24T09:22:16.867Z,1.52
2022-12-24T09:23:18.349Z,1.73
2022-12-24T09:24:20.767Z,1.33
2022-12-24T09:25:22.285Z,1.77
2022-12-24T09:26:27.819Z,1.23
2022-12-24T09:27:30.489Z,1.60
2022-12-24T09:28:32.911Z,2.08
2022-12-24T09:29:35.444Z,1.75
2022-12-24T09:30:38.327Z,1.40
2022-12-24T09:31:39.890Z,1.30
2022-12-24T09:32:42.442Z,1.65
2022-12-24T09:33:46.281Z,1.35
2022-12-24T09:34:50.242Z,1.60
2022-12-24T09:35:52.450Z,1.42
2022-12-24T09:36:54.954Z,1.40
2022-12-24T09:38:02.977Z,1.33
2022-12-24T09:39:05.626Z,1.77
2022-12-24T09:40:18.185Z,1.20
2022-12-24T09:41:35.749Z,1.17
2022-12-24T09:42:51.414Z,0.95
2022-12-24T09:43:59.214Z,1.67
2022-12-24T09:45:06.307Z,1.30
2022-12-24T09:46:15.748Z,1.33
2022-12-24T09:47:24.953Z,1.50
2022-12-24T09:48:31.179Z,1.30
2022-12-24T09:49:39.233Z,1.42
2022-12-24T09:50:47.533Z,1.48
2022-12-24T09:51:52.528Z,1.00
2022-12-24T09:52:58.112Z,1.20
2022-12-24T09:54:04.161Z,1.42
2022-12-24T09:55:15.492Z,1.13
2022-12-24T09:56:22.010Z,1.13
2022-12-24T09:57:28.899Z,1.25
2022-12-24T09:58:37.749Z,0.93
2022-12-24T09:59:41.814Z,1.20
2022-12-24T10:00:49.687Z,1.00
2022-12-24T10:01:55.275Z,1.38
2022-12-24T10:02:57.745Z,1.10
2022-12-24T10:04:03.964Z,1.00
2022-12-24T10:05:14.099Z,1.40
2022-12-24T10:06:27.058Z,0.77
2022-12-24T10:07:42.810Z,0.88
2022-12-24T10:08:58.654Z,1.27
2022-12-24T10:10:11.992Z,1.30
2022-12-24T10:11:24.552Z,1.25
2022-12-24T10:12:33.188Z,0.93
2022-12-24T10:13:50.315Z,1.27
2022-12-24T10:15:04.046Z,1.02
2022-12-24T10:16:15.892Z,1.10
2022-12-24T10:17:36.426Z,1.10
2022-12-24T10:18:49.544Z,1.08
2022-12-24T10:20:01.250Z,0.98
2022-12-24T10:21:13.716Z,1.10
2022-12-24T10:22:27.408Z,1.25
2022-12-24T10:23:34.129Z,1.00
2022-12-24T10:24:50.623Z,1.08
2022-12-24T10:26:02.039Z,1.20
2022-12-24T10:27:11.062Z,0.90
2022-12-24T10:28:15.880Z,1.25
2022-12-24T10:29:21.759Z,0.85
2022-12-24T10:30:23.934Z,1.00
2022-12-24T10:31:30.167Z,1.10
2022-12-24T10:32:34.235Z,1.38
2022-12-24T10:33:43.650Z,0.90
2022-12-24T10:34:49.882Z,0.75
2022-12-24T10:35:56.760Z,1.08
2022-12-24T10:36:59.790Z,1.23
2022-12-24T10:38:04.345Z,0.88
2022-12-24T10:39:16.426Z,1.08
2022-12-24T10:40:28.317Z,1.02
2022-12-24T10:41:32.971Z,1.25
2022-12-24T10:42:39.843Z,1.00
2022-12-24T10:43:46.907Z,1.00
2022-12-24T10:44:53.811Z,0.93
2022-12-24T10:45:58.198Z,1.55
2022-12-24T10:46:59.840Z,1.10
2022-12-24T10:48:10.255Z,0.93
2022-12-24T10:49:16.395Z,0.93
2022-12-24T10:50:24.460Z,1.13
2022-12-24T10:51:34.694Z,1.02
2022-12-24T10:52:41.157Z,0.98
2022-12-24T10:53:49.172Z,1.08
2022-12-24T10:55:11.376Z,0.93
2022-12-24T10:56:16.373Z,1.13
2022-12-24T10:57:25.279Z,0.77
2022-12-24T10:58:27.839Z,0.88
2022-12-24T10:59:31.533Z,0.90
2022-12-24T11:00:36.503Z,1.50
2022-12-24T11:01:47.408Z,1.33
2022-12-24T11:03:06.079Z,0.75
2022-12-24T11:04:17.816Z,0.93
2022-12-24T11:05:30.641Z,1.15
2022-12-24T11:06:32.136Z,1.02
2022-12-24T11:07:35.306Z,1.15
2022-12-24T11:08:38.759Z,1.10
2022-12-24T11:09:43.287Z,0.90
2022-12-24T11:10:54.666Z,1.33
2022-12-24T11:12:02.558Z,1.20
2022-12-24T11:13:39.310Z,1.15
2022-12-24T11:14:42.455Z,1.25
2022-12-24T11:15:44.018Z,1.00
2022-12-24T11:16:54.860Z,1.40
2022-12-24T11:19:04.108Z,1.55
2022-12-24T11:20:07.395Z,1.50
2022-12-24T11:21:09.945Z,1.27
2022-12-24T11:22:20.218Z,2.38
2022-12-24T11:23:23.913Z,1.40
2022-12-24T11:24:29.515Z,1.20
2022-12-24T11:25:35.329Z,1.80
2022-12-24T11:26:36.990Z,1.60
2022-12-24T11:27:47.329Z,1.33
2022-12-24T11:29:16.352Z,1.20
2022-12-24T11:30:29.091Z,1.30
2022-12-24T11:31:32.931Z,1.15
2022-12-24T11:32:35.616Z,1.40
2022-12-24T11:33:48.314Z,1.60
2022-12-24T11:34:49.804Z,1.92
2022-12-24T11:36:04.589Z,1.67
2022-12-24T11:37:14.904Z,1.40
2022-12-24T11:39:26.778Z,1.40
2022-12-24T11:40:34.662Z,1.48
2022-12-24T11:41:38.542Z,1.55
2022-12-24T11:42:40.835Z,1.65
2022-12-24T11:43:45.949Z,1.10
2022-12-24T11:44:49.548Z,1.80
2022-12-24T11:45:53.677Z,1.77
2022-12-24T11:46:57.588Z,1.35
2022-12-24T11:48:00.195Z,1.30
2022-12-24T11:49:19.896Z,2.03
2022-12-24T11:50:25.635Z,1.50
2022-12-24T11:51:28.730Z,1.20
2022-12-24T11:52:31.540Z,1.70
2022-12-24T11:53:38.974Z,1.48
2022-12-24T11:54:48.879Z,1.30
2022-12-24T11:55:56.557Z,1.27
2022-12-24T11:57:01.632Z,1.65
2022-12-24T11:58:13.017Z,1.40
2022-12-24T11:59:24.992Z,2.25
2022-12-24T12:00:27.338Z,1.63
2022-12-24T12:01:36.307Z,2.13
2022-12-24T12:02:41.114Z,1.17
2022-12-24T12:03:47.984Z,1.30
2022-12-24T12:04:54.958Z,1.40
2022-12-24T12:05:58.933Z,1.38
2022-12-24T12:07:11.132Z,1.77
2022-12-24T12:08:20.289Z,1.33
2022-12-24T12:09:26.005Z,1.13
2022-12-24T12:10:32.385Z,1.05
2022-12-24T12:11:39.403Z,1.10
2022-12-24T12:12:43.121Z,1.63
2022-12-24T12:13:49.135Z,1.40
2022-12-24T12:14:54.720Z,1.20
2022-12-24T12:16:06.361Z,1.25
2022-12-24T12:17:22.221Z,1.15
2022-12-24T12:18:33.805Z,0.90
2022-12-24T12:19:41.901Z,1.45
2022-12-24T12:20:48.618Z,1.20
2022-12-24T12:21:50.864Z,1.13
2022-12-24T12:22:58.605Z,1.50
2022-12-24T12:24:04.743Z,1.30
2022-12-24T12:25:20.865Z,1.08
2022-12-24T12:26:25.648Z,1.10
2022-12-24T12:27:34.945Z,1.20
2022-12-24T12:28:40.838Z,1.15
2022-12-24T12:29:47.970Z,1.20
2022-12-24T12:31:00.991Z,1.05
2022-12-24T12:32:06.612Z,1.00
2022-12-24T12:33:18.612Z,1.55
2022-12-24T12:34:24.867Z,1.10
2022-12-24T12:35:32.192Z,1.95
2022-12-24T12:36:39.281Z,1.40
2022-12-24T12:37:45.204Z,1.05
2022-12-24T12:38:47.254Z,1.10
2022-12-24T12:39:49.666Z,1.20
2022-12-24T12:41:01.892Z,0.98
2022-12-24T12:42:14.618Z,1.83
2022-12-24T12:43:32.093Z,1.20
2022-12-24T12:44:50.335Z,1.20
2022-12-24T12:45:58.259Z,1.50
2022-12-24T12:47:19.322Z,1.33
2022-12-24T12:50:46.903Z,1.55
2022-12-24T12:51:54.983Z,1.20
2022-12-24T12:53:12.261Z,1.20
2022-12-24T12:54:40.455Z,1.63
2022-12-24T12:55:56.239Z,1.10
2022-12-24T12:57:05.315Z,1.27
2022-12-24T12:58:18.209Z,1.52
2022-12-24T12:59:31.416Z,1.40
2022-12-24T13:00:41.142Z,1.10
2022-12-24T13:01:50.216Z,1.58
2022-12-24T13:03:12.594Z,2.05
2022-12-24T13:04:50.624Z,1.60
2022-12-24T13:06:22.985Z,1.45
2022-12-24T13:07:52.206Z,1.83
2022-12-24T13:09:17.704Z,1.50
2022-12-24T13:10:58.720Z,1.10
2022-12-24T13:12:25.714Z,1.40
2022-12-24T13:13:48.678Z,1.80
2022-12-24T13:15:08.884Z,1.75
2022-12-24T13:16:29.619Z,1.40
2022-12-24T13:18:03.371Z,1.10
2022-12-24T13:19:17.563Z,1.42
2022-12-24T13:20:29.553Z,1.60
2022-12-24T13:21:31.864Z,1.85
2022-12-24T13:22:34.367Z,1.70
2022-12-24T13:23:35.983Z,1.52
2022-12-24T13:24:38.906Z,1.92
2022-12-24T13:25:43.059Z,2.00
2022-12-24T13:27:01.325Z,1.30
2022-12-24T13:28:33.010Z,1.60
2022-12-24T13:29:43.654Z,1.98
2022-12-24T13:30:49.085Z,1.50
2022-12-24T13:31:50.877Z,2.00
2022-12-24T13:32:55.353Z,2.05
2022-12-24T13:34:02.277Z,1.92
2022-12-24T13:35:35.268Z,1.70
2022-12-24T13:37:05.935Z,2.22
2022-12-24T13:38:34.716Z,1.75
2022-12-24T13:40:03.717Z,2.03
2022-12-24T13:41:55.286Z,2.25
2022-12-24T13:43:12.299Z,1.70
2022-12-24T13:44:23.309Z,1.65
2022-12-24T13:46:00.472Z,1.52
2022-12-24T13:47:18.539Z,2.35
2022-12-24T13:48:31.906Z,1.63
2022-12-24T13:49:36.444Z,1.75
2022-12-24T13:50:45.878Z,1.67
2022-12-24T13:51:48.689Z,1.85
2022-12-24T13:52:54.224Z,1.55
2022-12-24T13:53:59.504Z,2.10
2022-12-24T13:55:17.835Z,1.95
2022-12-24T13:56:27.343Z,1.75
2022-12-24T13:57:34.332Z,1.60
2022-12-24T13:58:40.598Z,2.45
2022-12-24T13:59:42.503Z,1.75
2022-12-24T14:00:54.332Z,2.40
2022-12-24T14:01:57.711Z,1.90
2022-12-24T14:03:05.455Z,2.10
2022-12-24T14:04:14.051Z,1.80
2022-12-24T14:05:21.825Z,1.98
2022-12-24T14:06:27.959Z,1.63
2022-12-24T14:07:29.984Z,1.77
2022-12-24T14:08:40.425Z,2.45
2022-12-24T14:09:49.329Z,2.05
2022-12-24T14:11:03.301Z,1.80
2022-12-24T14:12:29.272Z,1.60
2022-12-24T14:14:10.213Z,1.92
2022-12-24T14:15:45.954Z,1.80
2022-12-24T14:16:53.743Z,2.00
2022-12-24T14:17:56.755Z,2.15
2022-12-24T14:19:02.210Z,1.80
2022-12-24T14:20:09.173Z,1.70
2022-12-24T14:21:18.473Z,1.98
2022-12-24T14:22:27.731Z,1.92
2022-12-24T14:23:42.188Z,1.95
2022-12-24T14:24:51.333Z,2.17
2022-12-24T14:25:53.291Z,2.03
2022-12-24T14:26:59.647Z,1.80
2022-12-24T14:28:06.002Z,2.10
2022-12-24T14:29:24.430Z,2.00
2022-12-24T14:30:29.635Z,2.00
2022-12-24T14:31:32.191Z,1.75
2022-12-24T14:32:36.148Z,1.63
2022-12-24T14:33:40.097Z,1.67
2022-12-24T14:34:42.665Z,1.90
2022-12-24T14:35:44.196Z,2.25
2022-12-24T14:36:48.515Z,1.95
2022-12-24T14:37:52.450Z,1.98
2022-12-24T14:38:54.864Z,2.67
2022-12-24T14:39:57.488Z,1.80
2022-12-24T14:41:09.698Z,2.88
2022-12-24T14:42:29.335Z,2.53
2022-12-24T14:43:45.080Z,2.70
2022-12-24T14:44:56.171Z,2.17